Time;durP1;ratioP1;P1;durP2;ratioP2;P2;SDS_P1;SDS_P2;PMS_P1;PMS_P2;Temp;Humidity;BMP_temperature;BMP_pressure;BME280_temperature;BME280_humidity;BME280_pressure;Samples;Min_cycle;Max_cycle;Signal;HPM_P1;HPM_P2
2023/06/17 00:01:35;;;;;;;30.10;22.10;;;16.40;99.90;;;;;;5043770;28;20083;-75
2023/06/17 00:04:02;;;;;;;41.78;23.27;;;16.40;99.90;;;;;;5042881;28;20684;-75
2023/06/17 00:06:27;;;;;;;41.28;23.17;;;16.30;99.90;;;;;;5043158;28;20056;-74
2023/06/17 00:08:55;;;;;;;34.00;22.58;;;16.20;99.90;;;;;;5043540;28;20025;-74
2023/06/17 00:11:20;;;;;;;38.95;23.48;;;16.30;99.90;;;;;;5044106;28;20024;-73
2023/06/17 00:13:46;;;;;;;38.55;23.27;;;16.30;99.90;;;;;;5044327;28;20542;-73
2023/06/17 00:16:12;;;;;;;36.10;22.98;;;16.40;99.90;;;;;;5044859;28;20033;-76
2023/06/17 00:18:39;;;;;;;39.50;24.40;;;16.40;99.90;;;;;;5043181;28;20021;-74
2023/06/17 00:21:05;;;;;;;39.92;23.33;;;16.40;99.90;;;;;;5044617;28;20525;-75
2023/06/17 00:23:31;;;;;;;33.67;21.08;;;16.40;99.90;;;;;;5042761;28;20071;-73
2023/06/17 00:25:56;;;;;;;34.05;22.80;;;16.40;99.90;;;;;;5044446;28;20017;-74
2023/06/17 00:28:22;;;;;;;36.63;24.00;;;16.50;99.90;;;;;;5044003;28;20032;-74
2023/06/17 00:30:47;;;;;;;34.88;23.08;;;16.50;99.90;;;;;;5043928;28;20028;-74
2023/06/17 00:33:15;;;;;;;40.22;23.17;;;16.50;99.90;;;;;;5044088;28;20032;-76
2023/06/17 00:35:40;;;;;;;40.00;25.50;;;16.50;99.90;;;;;;5042761;28;20038;-75
2023/06/17 00:38:06;;;;;;;39.55;24.08;;;16.50;99.90;;;;;;5044553;28;20080;-75
2023/06/17 00:40:32;;;;;;;39.58;24.48;;;16.50;99.90;;;;;;5044273;28;20108;-75
2023/06/17 00:42:57;;;;;;;41.47;24.67;;;16.50;99.90;;;;;;5044214;28;20037;-76
2023/06/17 00:45:23;;;;;;;33.53;22.85;;;16.50;99.90;;;;;;5044300;28;20085;-75
2023/06/17 00:47:49;;;;;;;40.63;23.55;;;16.50;99.90;;;;;;5043764;28;20113;-75
2023/06/17 00:50:15;;;;;;;38.00;23.70;;;16.40;99.90;;;;;;5043538;28;20041;-76
2023/06/17 00:52:43;;;;;;;38.08;23.50;;;16.50;99.90;;;;;;5043391;28;20022;-75
2023/06/17 00:55:10;;;;;;;33.40;21.83;;;16.50;99.90;;;;;;5043552;28;20056;-75
2023/06/17 00:57:37;;;;;;;38.10;23.83;;;16.50;99.90;;;;;;5043976;28;20093;-74
2023/06/17 01:00:09;;;;;;;40.50;23.40;;;16.60;99.90;;;;;;5042678;28;20025;-74
2023/06/17 01:02:39;;;;;;;37.15;22.40;;;16.50;99.90;;;;;;5043683;28;20052;-76
2023/06/17 01:05:12;;;;;;;37.45;22.08;;;16.60;99.90;;;;;;5043917;28;20026;-75
2023/06/17 01:07:52;;;;;;;37.47;22.55;;;16.60;99.90;;;;;;5043553;28;20032;-77
2023/06/17 01:10:59;;;;;;;34.40;20.52;;;16.60;99.90;;;;;;5043303;28;20047;-75
2023/06/17 01:13:27;;;;;;;39.55;24.23;;;16.60;99.90;;;;;;5042324;28;20030;-74
2023/06/17 01:15:53;;;;;;;40.55;25.25;;;16.70;99.90;;;;;;5041879;28;20542;-74
2023/06/17 01:18:19;;;;;;;39.83;23.48;;;16.60;99.90;;;;;;5043388;28;20053;-74
2023/06/17 01:20:52;;;;;;;35.20;24.40;;;16.60;99.90;;;;;;5043465;28;20064;-76
2023/06/17 01:23:24;;;;;;;50.75;26.73;;;16.60;99.90;;;;;;5042659;28;20029;-74
2023/06/17 01:25:51;;;;;;;42.20;26.00;;;16.60;99.90;;;;;;5042121;28;20030;-75
2023/06/17 01:28:19;;;;;;;42.22;25.58;;;16.60;99.90;;;;;;5043198;28;20026;-76
2023/06/17 01:30:47;;;;;;;40.95;26.13;;;16.60;99.90;;;;;;5042945;28;20021;-75
2023/06/17 01:33:15;;;;;;;40.55;24.50;;;16.50;99.90;;;;;;5041971;28;20183;-76
2023/06/17 01:36:05;;;;;;;40.10;25.75;;;16.50;99.90;;;;;;5042529;28;20029;-74
2023/06/17 01:38:43;;;;;;;43.72;26.77;;;16.60;99.90;;;;;;5039753;28;20046;-76
2023/06/17 01:41:18;;;;;;;43.40;26.20;;;16.60;99.90;;;;;;5042317;28;20113;-76
2023/06/17 01:43:44;;;;;;;37.90;26.05;;;16.60;99.90;;;;;;5041650;28;20057;-74
2023/06/17 01:46:12;;;;;;;40.08;26.73;;;16.50;99.90;;;;;;5041550;28;20029;-75
2023/06/17 01:48:39;;;;;;;41.30;25.02;;;16.50;99.90;;;;;;5041206;28;20112;-76
2023/06/17 01:51:05;;;;;;;43.05;26.08;;;16.50;99.90;;;;;;5040629;28;20042;-75
2023/06/17 01:53:31;;;;;;;44.10;26.27;;;16.60;99.90;;;;;;5042981;28;20036;-74
2023/06/17 01:55:56;;;;;;;42.72;26.55;;;16.50;99.90;;;;;;5042992;28;20025;-74
2023/06/17 01:58:22;;;;;;;46.10;26.17;;;16.50;99.90;;;;;;5041641;28;20022;-76
2023/06/17 02:00:48;;;;;;;36.67;24.85;;;16.40;99.90;;;;;;5042984;28;20021;-76
2023/06/17 02:03:15;;;;;;;44.20;26.63;;;16.50;99.90;;;;;;5041608;28;20028;-74
2023/06/17 02:05:41;;;;;;;38.65;25.45;;;16.40;99.90;;;;;;5041105;28;20143;-75
2023/06/17 02:08:07;;;;;;;43.40;25.00;;;16.30;99.90;;;;;;5040136;28;20171;-76
2023/06/17 02:10:33;;;;;;;37.95;25.25;;;16.30;99.90;;;;;;5041454;28;20041;-74
2023/06/17 02:13:03;;;;;;;44.08;26.45;;;16.50;99.90;;;;;;5042772;28;20028;-76
2023/06/17 02:15:29;;;;;;;38.13;25.88;;;16.30;99.90;;;;;;5042282;28;20040;-75
2023/06/17 02:17:56;;;;;;;45.63;26.02;;;16.30;99.90;;;;;;5042647;28;20033;-77
2023/06/17 02:20:22;;;;;;;38.45;24.55;;;16.30;99.90;;;;;;5042539;28;20071;-73
2023/06/17 02:22:48;;;;;;;48.75;26.55;;;16.30;99.90;;;;;;5041105;28;20104;-75
2023/06/17 02:25:14;;;;;;;46.35;26.42;;;16.30;99.90;;;;;;5040870;28;20041;-77
2023/06/17 02:27:40;;;;;;;41.83;26.17;;;16.20;99.90;;;;;;5041288;28;20030;-76
2023/06/17 02:30:07;;;;;;;43.00;25.80;;;16.20;99.90;;;;;;5042382;28;20056;-75
2023/06/17 02:32:33;;;;;;;41.72;25.08;;;16.30;99.90;;;;;;5040738;28;20564;-74
2023/06/17 02:34:58;;;;;;;42.53;25.23;;;16.20;99.90;;;;;;5042309;28;20494;-75
2023/06/17 02:37:24;;;;;;;39.47;25.40;;;16.30;99.90;;;;;;5042547;28;20022;-75
2023/06/17 02:39:50;;;;;;;39.42;24.42;;;16.20;99.90;;;;;;5042072;28;20033;-75
2023/06/17 02:42:15;;;;;;;36.30;23.17;;;16.40;99.90;;;;;;5040656;28;20029;-74
2023/06/17 02:44:41;;;;;;;42.78;24.58;;;16.30;99.90;;;;;;5042106;28;20104;-76
2023/06/17 02:47:07;;;;;;;41.92;24.80;;;16.30;99.90;;;;;;5040588;28;20060;-74
2023/06/17 02:49:32;;;;;;;43.72;25.00;;;16.30;99.90;;;;;;5041938;28;20049;-74
2023/06/17 02:51:58;;;;;;;43.30;24.83;;;16.30;99.90;;;;;;5040473;28;20035;-73
2023/06/17 02:54:24;;;;;;;38.33;23.95;;;16.30;99.90;;;;;;5041621;28;20069;-75
2023/06/17 02:56:49;;;;;;;44.20;24.85;;;16.20;99.90;;;;;;5041841;28;20021;-74
2023/06/17 02:59:15;;;;;;;38.75;23.00;;;16.30;99.90;;;;;;5041701;28;20037;-74
2023/06/17 03:01:42;;;;;;;42.58;24.92;;;16.30;99.90;;;;;;5040399;28;20036;-74
2023/06/17 03:04:10;;;;;;;38.90;22.70;;;16.30;99.90;;;;;;5040497;28;20017;-74
2023/06/17 03:06:37;;;;;;;38.80;21.02;;;16.20;99.90;;;;;;5040491;28;20124;-75
2023/06/17 03:09:05;;;;;;;36.47;23.20;;;16.30;99.90;;;;;;5041792;28;20032;-73
2023/06/17 03:11:31;;;;;;;43.80;23.40;;;16.40;99.90;;;;;;5041467;28;20028;-73
2023/06/17 03:13:56;;;;;;;38.92;22.58;;;16.30;99.90;;;;;;5040292;28;20390;-74
2023/06/17 03:16:24;;;;;;;37.45;23.00;;;16.40;99.90;;;;;;5041595;28;20549;-73
2023/06/17 03:18:50;;;;;;;34.13;22.45;;;16.40;99.90;;;;;;5041929;28;20013;-75
2023/06/17 03:21:15;;;;;;;35.17;22.20;;;16.40;99.90;;;;;;5041294;28;20101;-73
2023/06/17 03:23:42;;;;;;;35.58;21.67;;;16.40;99.90;;;;;;5041724;28;20025;-73
2023/06/17 03:26:09;;;;;;;38.80;22.48;;;16.40;99.90;;;;;;5040416;28;20071;-74
2023/06/17 03:28:35;;;;;;;39.25;22.20;;;16.40;99.90;;;;;;5041754;28;20463;-74
2023/06/17 03:31:02;;;;;;;36.33;22.15;;;16.30;99.90;;;;;;5040052;28;20030;-74
2023/06/17 03:33:28;;;;;;;36.70;22.38;;;16.40;99.90;;;;;;5041512;28;20026;-74
2023/06/17 03:35:53;;;;;;;33.65;21.77;;;16.50;99.90;;;;;;5041515;28;20025;-74
2023/06/17 03:38:19;;;;;;;41.70;22.83;;;16.30;99.90;;;;;;5040084;28;20041;-74
2023/06/17 03:40:45;;;;;;;34.80;21.52;;;16.40;99.90;;;;;;5041477;28;20021;-73
2023/06/17 03:43:13;;;;;;;38.60;21.65;;;16.40;99.90;;;;;;5039881;28;20029;-75
2023/06/17 03:45:39;;;;;;;38.38;21.42;;;16.50;99.90;;;;;;5041701;28;20021;-76
2023/06/17 03:48:05;;;;;;;33.40;20.88;;;16.50;99.90;;;;;;5041725;28;20032;-77
2023/06/17 03:50:31;;;;;;;36.20;21.40;;;16.40;99.90;;;;;;5041069;28;20061;-73
2023/06/17 03:52:57;;;;;;;28.42;18.45;;;16.40;99.90;;;;;;5041486;28;20083;-75
2023/06/17 03:55:23;;;;;;;38.95;21.00;;;16.40;99.90;;;;;;5039856;28;20037;-74
2023/06/17 03:57:49;;;;;;;33.22;19.58;;;16.40;99.90;;;;;;5039651;28;20148;-74
2023/06/17 04:00:15;;;;;;;38.33;20.27;;;16.30;99.90;;;;;;5040808;28;20026;-74
2023/06/17 04:02:47;;;;;;;35.63;20.15;;;16.40;99.90;;;;;;5056330;28;20021;-75
2023/06/17 04:05:13;;;;;;;32.65;20.05;;;16.30;99.90;;;;;;5043346;28;20079;-74
2023/06/17 04:07:39;;;;;;;38.65;21.85;;;16.40;99.90;;;;;;5043501;28;20032;-76
2023/06/17 04:10:07;;;;;;;31.90;20.15;;;16.50;99.90;;;;;;5043674;28;20026;-73
2023/06/17 04:12:35;;;;;;;38.15;21.42;;;16.40;99.90;;;;;;5044499;28;20021;-73
2023/06/17 04:15:00;;;;;;;35.72;20.52;;;16.40;99.90;;;;;;5043535;28;20033;-74
2023/06/17 04:17:26;;;;;;;35.38;20.95;;;16.50;99.90;;;;;;5043236;28;20040;-75
2023/06/17 04:19:54;;;;;;;34.03;20.38;;;16.40;99.90;;;;;;5043246;28;20391;-73
2023/06/17 04:22:20;;;;;;;33.55;20.45;;;16.60;99.90;;;;;;5044213;28;20068;-73
2023/06/17 04:24:46;;;;;;;41.78;20.83;;;16.50;99.90;;;;;;5043105;28;20034;-74
2023/06/17 04:27:11;;;;;;;38.03;20.30;;;16.50;99.90;;;;;;5044681;28;20056;-75
2023/06/17 04:29:37;;;;;;;36.15;20.42;;;16.50;99.90;;;;;;5043122;28;20021;-73
2023/06/17 04:32:03;;;;;;;34.72;20.42;;;16.50;99.90;;;;;;5042628;28;20025;-73
2023/06/17 04:34:29;;;;;;;32.65;19.70;;;16.50;99.90;;;;;;5043933;28;20041;-74
2023/06/17 04:36:58;;;;;;;35.97;20.52;;;16.50;99.90;;;;;;5044542;28;20032;-73
2023/06/17 04:39:26;;;;;;;32.70;20.30;;;16.50;99.90;;;;;;5043665;28;20037;-74
2023/06/17 04:41:52;;;;;;;32.67;18.90;;;16.50;99.90;;;;;;5044221;28;20849;-74
2023/06/17 04:44:17;;;;;;;33.90;20.73;;;16.60;99.90;;;;;;5042854;28;20068;-73
2023/06/17 04:46:48;;;;;;;33.92;20.35;;;16.60;99.90;;;;;;5043215;28;20076;-73
2023/06/17 04:49:14;;;;;;;37.08;19.70;;;16.70;99.90;;;;;;5043755;28;20037;-74
2023/06/17 04:51:40;;;;;;;35.08;19.95;;;16.70;99.90;;;;;;5042886;28;20080;-75
2023/06/17 04:54:06;;;;;;;35.28;19.42;;;16.60;99.90;;;;;;5043753;28;20450;-73
2023/06/17 04:56:32;;;;;;;33.97;19.50;;;16.60;99.90;;;;;;5042460;28;20091;-73
2023/06/17 04:58:58;;;;;;;34.65;19.00;;;16.70;99.90;;;;;;5044281;28;20022;-74
2023/06/17 05:01:23;;;;;;;31.58;19.65;;;16.70;99.90;;;;;;5043520;28;20044;-73
2023/06/17 05:03:49;;;;;;;34.78;19.50;;;16.70;99.90;;;;;;5043870;28;20053;-75
2023/06/17 05:06:15;;;;;;;39.40;19.90;;;16.80;99.90;;;;;;5043819;28;20121;-75
2023/06/17 05:08:40;;;;;;;28.48;19.35;;;16.80;99.90;;;;;;5042092;28;20076;-75
2023/06/17 05:11:06;;;;;;;33.75;20.27;;;16.80;99.90;;;;;;5044124;28;20021;-73
2023/06/17 05:13:31;;;;;;;37.45;20.85;;;16.80;99.90;;;;;;5041985;28;20032;-74
2023/06/17 05:15:57;;;;;;;37.33;20.33;;;16.90;99.90;;;;;;5042187;28;20525;-75
2023/06/17 05:18:23;;;;;;;34.72;18.83;;;16.80;99.90;;;;;;5042362;28;20225;-73
2023/06/17 05:20:48;;;;;;;32.47;19.33;;;16.80;99.90;;;;;;5041858;28;20018;-73
2023/06/17 05:23:14;;;;;;;29.75;19.48;;;16.90;99.90;;;;;;5043254;28;20080;-73
2023/06/17 05:25:39;;;;;;;32.53;18.70;;;16.70;99.90;;;;;;5042184;28;20049;-75
2023/06/17 05:28:06;;;;;;;34.25;19.95;;;16.90;99.90;;;;;;5043451;28;20021;-73
2023/06/17 05:30:32;;;;;;;35.85;19.75;;;16.90;99.90;;;;;;5043422;28;20064;-73
2023/06/17 05:32:57;;;;;;;44.50;19.60;;;16.90;99.90;;;;;;5043390;28;20033;-73
2023/06/17 05:35:23;;;;;;;35.03;19.33;;;16.90;99.90;;;;;;5041377;28;20049;-74
2023/06/17 05:37:48;;;;;;;38.63;19.98;;;16.90;99.90;;;;;;5043291;28;20501;-74
2023/06/17 05:40:14;;;;;;;38.55;20.48;;;16.90;99.90;;;;;;5041912;28;20018;-73
2023/06/17 05:42:40;;;;;;;34.42;19.15;;;17.00;99.90;;;;;;5043091;28;20100;-74
2023/06/17 05:45:06;;;;;;;35.25;18.60;;;17.00;99.90;;;;;;5041876;28;20029;-73
2023/06/17 05:47:32;;;;;;;38.20;18.70;;;17.00;99.90;;;;;;5042866;28;20026;-74
2023/06/17 05:49:58;;;;;;;41.55;19.67;;;17.10;99.90;;;;;;5041111;28;20061;-75
2023/06/17 05:52:24;;;;;;;36.15;19.13;;;17.00;99.90;;;;;;5042771;28;20045;-75
2023/06/17 05:54:49;;;;;;;36.05;19.70;;;17.00;99.90;;;;;;5042473;28;20025;-73
2023/06/17 05:57:15;;;;;;;33.97;18.42;;;17.20;99.90;;;;;;5041429;28;20020;-76
2023/06/17 05:59:40;;;;;;;41.40;19.83;;;17.10;99.90;;;;;;5042866;28;20060;-73
2023/06/17 06:02:06;;;;;;;33.60;18.40;;;17.20;99.90;;;;;;5041733;28;20032;-74
2023/06/17 06:04:32;;;;;;;34.50;19.60;;;17.20;99.90;;;;;;5042780;28;20021;-72
2023/06/17 06:06:57;;;;;;;31.33;19.13;;;17.20;99.90;;;;;;5041520;28;20017;-74
2023/06/17 06:09:23;;;;;;;37.22;20.52;;;17.20;99.90;;;;;;5040836;28;20025;-74
2023/06/17 06:11:48;;;;;;;39.58;21.42;;;17.20;99.90;;;;;;5041090;28;20059;-72
2023/06/17 06:14:14;;;;;;;42.78;21.33;;;17.30;99.90;;;;;;5041303;28;20091;-74
2023/06/17 06:16:40;;;;;;;34.83;20.90;;;17.30;99.90;;;;;;5040674;28;20389;-72
2023/06/17 06:19:06;;;;;;;43.60;22.88;;;17.30;99.90;;;;;;5042484;28;20026;-74
2023/06/17 06:21:31;;;;;;;42.28;22.48;;;17.30;99.90;;;;;;5042715;28;20084;-73
2023/06/17 06:23:57;;;;;;;39.45;20.85;;;17.30;99.90;;;;;;5042093;28;20036;-74
2023/06/17 06:26:23;;;;;;;35.33;21.08;;;17.30;99.90;;;;;;5042046;28;20048;-73
2023/06/17 06:28:48;;;;;;;39.55;21.13;;;17.30;99.90;;;;;;5042125;28;20033;-72
2023/06/17 06:31:14;;;;;;;35.90;19.83;;;17.30;99.90;;;;;;5041882;28;20167;-74
2023/06/17 06:33:39;;;;;;;41.88;20.88;;;17.30;99.90;;;;;;5040835;28;20116;-74
2023/06/17 06:36:05;;;;;;;36.25;19.73;;;17.50;99.90;;;;;;5042146;28;20033;-74
2023/06/17 06:38:30;;;;;;;40.00;20.52;;;17.40;99.90;;;;;;5041901;28;20025;-73
2023/06/17 06:40:56;;;;;;;38.55;19.95;;;17.50;99.90;;;;;;5042212;28;20125;-72
2023/06/17 06:43:23;;;;;;;38.88;21.35;;;17.40;99.90;;;;;;5042304;28;20072;-73
2023/06/17 06:45:49;;;;;;;33.55;21.10;;;17.50;99.90;;;;;;5041478;28;20043;-74
2023/06/17 06:48:14;;;;;;;39.53;20.05;;;17.40;99.90;;;;;;5042166;28;20073;-74
2023/06/17 06:50:40;;;;;;;42.13;19.75;;;17.40;99.90;;;;;;5041522;28;20042;-75
2023/06/17 06:53:06;;;;;;;37.45;20.40;;;17.50;99.90;;;;;;5042014;28;20024;-75
2023/06/17 06:55:31;;;;;;;35.53;20.25;;;17.50;99.90;;;;;;5042078;28;20060;-73
2023/06/17 06:57:57;;;;;;;34.38;20.08;;;17.60;99.90;;;;;;5040594;28;20061;-73
2023/06/17 07:00:22;;;;;;;33.20;19.70;;;17.60;99.90;;;;;;5041666;28;20080;-74
2023/06/17 07:02:48;;;;;;;35.75;19.15;;;17.60;99.90;;;;;;5039645;28;20029;-75
2023/06/17 07:05:13;;;;;;;36.03;19.83;;;17.60;99.90;;;;;;5041678;28;20067;-72
2023/06/17 07:07:39;;;;;;;38.53;20.73;;;17.70;99.90;;;;;;5041887;28;20394;-72
2023/06/17 07:10:05;;;;;;;37.75;19.50;;;17.70;99.90;;;;;;5042353;28;20037;-72
2023/06/17 07:12:31;;;;;;;39.05;20.80;;;17.80;99.90;;;;;;5041479;28;20104;-73
2023/06/17 07:14:57;;;;;;;37.42;20.40;;;17.90;99.90;;;;;;5040435;28;20068;-73
2023/06/17 07:17:22;;;;;;;38.72;20.25;;;17.90;99.90;;;;;;5041885;28;20022;-74
2023/06/17 07:19:48;;;;;;;38.40;20.02;;;17.90;99.90;;;;;;5041274;28;20442;-71
2023/06/17 07:22:13;;;;;;;35.22;18.75;;;17.90;99.90;;;;;;5041723;28;20025;-72
2023/06/17 07:24:39;;;;;;;33.10;18.50;;;17.90;99.90;;;;;;5040422;28;20040;-73
2023/06/17 07:27:04;;;;;;;37.33;18.83;;;17.90;99.90;;;;;;5041741;28;20026;-71
2023/06/17 07:29:30;;;;;;;35.17;18.75;;;18.00;99.90;;;;;;5041278;28;20577;-71
2023/06/17 07:31:56;;;;;;;34.03;18.48;;;18.00;99.90;;;;;;5040283;28;20061;-71
2023/06/17 07:34:22;;;;;;;33.92;18.52;;;18.00;99.90;;;;;;5041039;28;20044;-71
2023/06/17 07:36:52;;;;;;;35.45;18.05;;;18.20;99.90;;;;;;5040556;28;20025;-73
2023/06/17 07:39:20;;;;;;;36.45;19.25;;;18.20;99.90;;;;;;5041233;28;20422;-72
2023/06/17 07:41:46;;;;;;;34.08;19.02;;;18.20;99.90;;;;;;5043343;28;20026;-72
2023/06/17 07:44:11;;;;;;;34.58;18.98;;;18.20;99.90;;;;;;5045398;28;20051;-71
2023/06/17 07:46:37;;;;;;;32.58;17.65;;;18.30;99.90;;;;;;5044996;28;20022;-74
2023/06/17 07:49:02;;;;;;;40.15;18.55;;;18.30;99.90;;;;;;5045095;28;20065;-73
2023/06/17 07:51:28;;;;;;;32.38;18.00;;;18.30;99.90;;;;;;5043760;28;20028;-72
2023/06/17 07:53:54;;;;;;;32.58;18.25;;;18.40;99.90;;;;;;5044484;28;20067;-72
2023/06/17 07:56:22;;;;;;;30.45;17.48;;;18.40;99.90;;;;;;5043779;28;20108;-73
2023/06/17 07:58:48;;;;;;;35.15;17.95;;;18.50;99.90;;;;;;5043370;28;20022;-72
2023/06/17 08:01:13;;;;;;;32.90;17.55;;;18.60;99.90;;;;;;5043936;28;20033;-73
2023/06/17 08:03:39;;;;;;;34.42;18.17;;;18.70;99.90;;;;;;5043114;28;20024;-73
2023/06/17 08:06:05;;;;;;;31.60;17.67;;;18.70;99.90;;;;;;5043561;28;20431;-71
2023/06/17 08:08:31;;;;;;;34.85;18.58;;;18.80;99.90;;;;;;5044231;28;20030;-72
2023/06/17 08:10:56;;;;;;;33.58;16.88;;;18.80;99.90;;;;;;5044134;28;20021;-71
2023/06/17 08:13:22;;;;;;;32.13;17.67;;;18.80;99.90;;;;;;5042736;28;20084;-71
2023/06/17 08:15:49;;;;;;;37.53;16.73;;;18.90;99.90;;;;;;5043518;28;20123;-72
2023/06/17 08:18:15;;;;;;;33.55;17.48;;;18.90;99.90;;;;;;5044122;28;20014;-73
2023/06/17 08:20:41;;;;;;;32.05;16.95;;;19.10;99.90;;;;;;5044482;28;20552;-72
2023/06/17 08:23:07;;;;;;;30.13;17.20;;;19.20;99.90;;;;;;5042922;28;20089;-72
2023/06/17 08:25:33;;;;;;;34.33;17.48;;;19.30;99.90;;;;;;5044379;28;20013;-71
2023/06/17 08:27:59;;;;;;;29.90;17.75;;;19.30;99.90;;;;;;5043852;28;20029;-75
2023/06/17 08:30:25;;;;;;;33.05;17.08;;;19.50;99.90;;;;;;5043953;28;20033;-70
2023/06/17 08:32:51;;;;;;;34.30;18.60;;;19.40;99.90;;;;;;5042928;28;20022;-73
2023/06/17 08:35:17;;;;;;;30.98;17.08;;;19.40;99.90;;;;;;5043406;28;20117;-73
2023/06/17 08:37:42;;;;;;;29.23;16.95;;;19.50;99.90;;;;;;5043153;28;20022;-73
2023/06/17 08:40:08;;;;;;;34.10;18.75;;;19.50;99.90;;;;;;5041879;28;20018;-73
2023/06/17 08:42:34;;;;;;;34.80;16.80;;;19.50;99.90;;;;;;5044095;28;20033;-73
2023/06/17 08:45:01;;;;;;;37.22;17.30;;;19.50;99.90;;;;;;5043849;28;20028;-73
2023/06/17 08:47:27;;;;;;;28.67;16.45;;;19.60;99.90;;;;;;5041023;28;20432;-73
2023/06/17 08:49:57;;;;;;;27.73;17.15;;;19.70;99.90;;;;;;5043254;28;20064;-73
2023/06/17 08:52:24;;;;;;;38.40;17.33;;;19.70;99.90;;;;;;5042849;28;20030;-73
2023/06/17 08:54:52;;;;;;;33.22;16.85;;;19.70;99.90;;;;;;5043842;28;20038;-72
2023/06/17 08:57:18;;;;;;;28.45;16.58;;;19.70;99.90;;;;;;5041901;28;20025;-73
2023/06/17 08:59:43;;;;;;;25.80;15.05;;;19.70;99.90;;;;;;5043096;28;20017;-72
2023/06/17 09:02:10;;;;;;;25.30;15.18;;;19.70;99.90;;;;;;5041480;28;20021;-71
2023/06/17 09:04:36;;;;;;;26.60;15.70;;;19.70;99.90;;;;;;5043878;28;20112;-73
2023/06/17 09:07:02;;;;;;;29.95;16.05;;;19.90;99.90;;;;;;5043206;28;20056;-75
2023/06/17 09:09:28;;;;;;;31.50;16.50;;;20.10;99.90;;;;;;5042595;28;20033;-74
2023/06/17 09:11:54;;;;;;;25.50;15.57;;;20.20;99.90;;;;;;5043517;28;20033;-75
2023/06/17 09:14:22;;;;;;;26.08;16.13;;;20.30;99.90;;;;;;5041453;28;20037;-73
2023/06/17 09:16:50;;;;;;;27.50;15.50;;;20.50;99.90;;;;;;5042805;28;20028;-73
2023/06/17 09:19:15;;;;;;;27.90;15.55;;;20.70;99.90;;;;;;5042811;28;20021;-72
2023/06/17 09:21:41;;;;;;;25.38;14.82;;;20.80;99.90;;;;;;5043973;28;20052;-71
2023/06/17 09:24:11;;;;;;;26.63;14.90;;;20.80;99.90;;;;;;5043168;28;20052;-71
2023/06/17 09:26:41;;;;;;;25.52;15.23;;;20.80;99.90;;;;;;5043044;28;20020;-73
2023/06/17 09:29:11;;;;;;;25.67;15.13;;;20.80;99.90;;;;;;5043250;28;20482;-72
2023/06/17 09:31:53;;;;;;;26.67;13.93;;;20.90;99.90;;;;;;5043073;28;20180;-72
2023/06/17 09:34:20;;;;;;;27.55;15.35;;;21.00;99.90;;;;;;5043305;28;20124;-73
2023/06/17 09:36:51;;;;;;;26.23;14.70;;;21.20;99.90;;;;;;5042762;28;20051;-72
2023/06/17 09:39:17;;;;;;;27.98;15.70;;;21.30;99.90;;;;;;5041669;28;20021;-71
2023/06/17 09:41:43;;;;;;;24.17;15.30;;;21.50;99.90;;;;;;5041291;28;20090;-72
2023/06/17 09:44:09;;;;;;;26.63;14.63;;;21.40;99.90;;;;;;5042033;28;20034;-72
2023/06/17 09:46:36;;;;;;;27.70;16.05;;;21.40;99.90;;;;;;5042340;28;20026;-71
2023/06/17 09:49:12;;;;;;;29.60;16.45;;;21.30;99.90;;;;;;5042877;28;20056;-73
2023/06/17 09:51:39;;;;;;;24.75;14.52;;;21.20;99.90;;;;;;5042917;28;20026;-75
2023/06/17 09:54:06;;;;;;;25.20;14.25;;;21.20;99.90;;;;;;5042392;28;20183;-70
2023/06/17 09:56:33;;;;;;;20.90;13.88;;;21.30;99.90;;;;;;5042746;28;20080;-73
2023/06/17 09:59:00;;;;;;;25.48;14.43;;;21.30;99.90;;;;;;5042091;28;20033;-72
2023/06/17 10:01:30;;;;;;;27.85;15.02;;;21.40;99.90;;;;;;5041974;28;20029;-74
2023/06/17 10:03:59;;;;;;;24.13;14.63;;;21.60;99.90;;;;;;5042113;28;20025;-71
2023/06/17 10:06:28;;;;;;;22.63;14.13;;;21.80;99.90;;;;;;5042067;28;20018;-73
2023/06/17 10:08:54;;;;;;;23.95;13.07;;;22.00;99.90;;;;;;5042707;28;20049;-71
2023/06/17 10:11:20;;;;;;;21.48;13.48;;;22.20;99.90;;;;;;5041808;28;20040;-70
2023/06/17 10:13:52;;;;;;;23.92;13.80;;;22.30;99.90;;;;;;5042501;28;20080;-74
2023/06/17 10:16:19;;;;;;;22.13;13.80;;;22.30;99.90;;;;;;5041297;28;20025;-74
2023/06/17 10:18:48;;;;;;;28.42;13.65;;;22.40;99.90;;;;;;5041509;28;20044;-72
2023/06/17 10:21:16;;;;;;;29.92;14.82;;;22.50;99.90;;;;;;5042610;28;20029;-72
2023/06/17 10:23:43;;;;;;;24.98;13.43;;;22.70;99.90;;;;;;5040238;28;20036;-74
2023/06/17 10:26:11;;;;;;;23.20;14.32;;;22.70;99.90;;;;;;5041995;28;20014;-71
2023/06/17 10:28:45;;;;;;;21.38;12.68;;;22.70;99.90;;;;;;5039896;28;20060;-70
2023/06/17 10:31:31;;;;;;;30.30;14.27;;;22.80;99.90;;;;;;5040583;28;20394;-73
2023/06/17 10:34:00;;;;;;;24.15;14.85;;;22.90;99.90;;;;;;5040299;28;20046;-71
2023/06/17 10:36:26;;;;;;;22.48;14.25;;;23.00;99.90;;;;;;5041441;28;20036;-71
2023/06/17 10:38:53;;;;;;;23.58;13.73;;;23.00;99.90;;;;;;5040475;28;20025;-70
2023/06/17 10:41:19;;;;;;;26.02;14.48;;;22.90;99.90;;;;;;5041146;28;20048;-70
2023/06/17 10:43:44;;;;;;;24.48;13.70;;;22.80;99.90;;;;;;5041522;28;20026;-75
2023/06/17 10:46:10;;;;;;;23.58;12.88;;;22.60;99.90;;;;;;5041349;28;20036;-72
2023/06/17 10:48:36;;;;;;;22.65;12.50;;;22.60;99.90;;;;;;5041768;28;20025;-72
2023/06/17 10:51:09;;;;;;;21.60;13.88;;;22.60;99.90;;;;;;5040172;28;20530;-73
2023/06/17 10:53:36;;;;;;;23.75;14.52;;;22.50;99.90;;;;;;5041596;28;20068;-71
2023/06/17 10:56:06;;;;;;;24.58;13.65;;;22.50;99.90;;;;;;5040378;28;20052;-72
2023/06/17 10:58:35;;;;;;;25.25;13.43;;;22.50;99.90;;;;;;5041261;28;20028;-75
2023/06/17 11:01:05;;;;;;;21.77;13.10;;;22.70;99.90;;;;;;5039740;28;20025;-71
2023/06/17 11:03:31;;;;;;;24.67;14.80;;;22.90;99.90;;;;;;5041472;28;20013;-72
2023/06/17 11:05:58;;;;;;;28.55;14.57;;;23.20;99.90;;;;;;5040196;28;20024;-72
2023/06/17 11:08:24;;;;;;;23.98;12.68;;;23.30;99.90;;;;;;5042050;28;20025;-70
2023/06/17 11:10:50;;;;;;;23.95;12.82;;;23.50;99.90;;;;;;5041288;28;20017;-72
2023/06/17 11:13:21;;;;;;;23.42;13.32;;;23.60;99.90;;;;;;5042594;28;20032;-70
2023/06/17 11:15:47;;;;;;;26.15;14.32;;;23.80;99.90;;;;;;5045334;28;20044;-71
2023/06/17 11:18:12;;;;;;;25.52;14.07;;;23.90;99.90;;;;;;5045818;28;20034;-71
2023/06/17 11:20:38;;;;;;;21.38;13.30;;;23.90;99.90;;;;;;5045423;28;20086;-73
2023/06/17 11:23:04;;;;;;;22.52;12.90;;;24.10;99.90;;;;;;5045280;28;20025;-71
2023/06/17 11:25:30;;;;;;;24.23;12.88;;;24.10;99.90;;;;;;5045140;28;20014;-71
2023/06/17 11:27:56;;;;;;;23.83;12.70;;;24.10;99.90;;;;;;5045627;28;20021;-73
2023/06/17 11:30:25;;;;;;;21.00;13.10;;;24.20;99.90;;;;;;5046089;28;20029;-74
2023/06/17 11:32:51;;;;;;;21.92;11.95;;;24.20;99.90;;;;;;5045246;28;20032;-72
2023/06/17 11:35:17;;;;;;;20.40;12.13;;;24.20;99.90;;;;;;5043962;28;20033;-72
2023/06/17 11:37:42;;;;;;;17.60;11.35;;;24.20;99.90;;;;;;5043392;28;20025;-71
2023/06/17 11:40:12;;;;;;;21.83;12.52;;;24.20;99.90;;;;;;5044988;28;20092;-71
2023/06/17 11:42:39;;;;;;;19.85;11.43;;;24.40;99.90;;;;;;5044887;28;20029;-71
2023/06/17 11:45:05;;;;;;;18.33;11.25;;;24.60;99.90;;;;;;5042807;28;20486;-71
2023/06/17 11:47:35;;;;;;;19.45;11.60;;;24.70;99.90;;;;;;5044448;28;20693;-71
2023/06/17 11:50:05;;;;;;;19.33;11.65;;;24.90;99.90;;;;;;5043241;28;20050;-69
2023/06/17 11:52:32;;;;;;;18.17;12.23;;;25.00;99.90;;;;;;5044452;28;20032;-70
2023/06/17 11:54:57;;;;;;;19.05;11.32;;;25.10;99.90;;;;;;5043756;28;20041;-72
2023/06/17 11:57:25;;;;;;;19.48;12.00;;;25.10;99.90;;;;;;5044886;28;20163;-72
2023/06/17 11:59:52;;;;;;;19.70;11.77;;;25.20;99.90;;;;;;5039078;28;20029;-70
2023/06/17 12:02:18;;;;;;;17.38;11.40;;;25.30;99.90;;;;;;5044722;28;20025;-72
2023/06/17 12:04:45;;;;;;;74.57;13.85;;;25.30;99.90;;;;;;5043706;28;20475;-71
2023/06/17 12:07:11;;;;;;;19.33;11.52;;;25.40;99.90;;;;;;5043552;28;20033;-72
2023/06/17 12:09:37;;;;;;;18.95;11.00;;;25.30;99.90;;;;;;5043603;28;20025;-72
2023/06/17 12:12:04;;;;;;;15.25;9.52;;;25.30;99.90;;;;;;5045317;28;20481;-70
2023/06/17 12:14:29;;;;;;;16.63;10.52;;;25.40;99.90;;;;;;5042848;28;20037;-72
2023/06/17 12:16:55;;;;;;;17.17;10.07;;;25.50;99.90;;;;;;5044937;28;20556;-72
2023/06/17 12:19:23;;;;;;;15.10;9.88;;;25.60;99.90;;;;;;5044740;28;20032;-70
2023/06/17 12:21:49;;;;;;;17.02;10.05;;;25.70;99.90;;;;;;5042895;28;20025;-71
2023/06/17 12:24:16;;;;;;;12.10;9.35;;;25.80;99.90;;;;;;5044311;28;20021;-71
2023/06/17 12:26:42;;;;;;;19.27;10.27;;;25.80;99.90;;;;;;5043069;28;20032;-70